Time;durP1;ratioP1;P1;durP2;ratioP2;P2;SDS_P1;SDS_P2;PMS_P1;PMS_P2;Temp;Humidity;BMP_temperature;BMP_pressure;BME280_temperature;BME280_humidity;BME280_pressure;Samples;Min_cycle;Max_cycle;Signal;HPM_P1;HPM_P2
2023/06/01 00:01:41;;;;;;;1.30;1.08;;;16.30;99.90;;;;;;5135885;27;20034;-72
2023/06/01 00:04:09;;;;;;;0.30;0.30;;;16.10;99.90;;;;;;5135817;27;20106;-72
2023/06/01 00:06:35;;;;;;;0.20;0.20;;;16.20;99.90;;;;;;5135960;27;20030;-72
2023/06/01 00:09:02;;;;;;;0.10;0.10;;;16.20;99.90;;;;;;5121803;27;20122;-72
2023/06/01 00:11:28;;;;;;;0.10;0.10;;;16.20;99.90;;;;;;5135835;27;20015;-72
2023/06/01 00:13:54;;;;;;;0.10;0.10;;;16.30;99.90;;;;;;5135388;27;20046;-72
2023/06/01 00:16:20;;;;;;;1.08;1.08;;;16.40;99.90;;;;;;5135757;27;20072;-72
2023/06/01 00:18:45;;;;;;;0.68;0.68;;;16.30;99.90;;;;;;5135670;27;20031;-72
2023/06/01 00:21:11;;;;;;;0.63;0.63;;;16.20;99.90;;;;;;5135358;27;20076;-72
2023/06/01 00:23:40;;;;;;;0.10;0.10;;;16.00;99.90;;;;;;5135655;27;20514;-72
2023/06/01 00:26:07;;;;;;;0.10;0.10;;;16.00;99.90;;;;;;5135390;27;20034;-72
2023/06/01 00:28:34;;;;;;;0.10;0.10;;;15.90;99.90;;;;;;5135489;27;20106;-72
2023/06/01 00:31:00;;;;;;;0.40;0.40;;;15.70;99.90;;;;;;5135951;27;20027;-72
2023/06/01 00:33:26;;;;;;;0.47;0.35;;;15.60;99.90;;;;;;5135275;27;20486;-72
2023/06/01 00:35:52;;;;;;;0.10;0.10;;;15.50;99.90;;;;;;5117024;27;20062;-72
2023/06/01 00:38:19;;;;;;;0.10;0.10;;;15.50;99.90;;;;;;5116445;27;20474;-72
2023/06/01 00:40:49;;;;;;;0.25;0.25;;;15.60;99.90;;;;;;5135332;27;20058;-72
2023/06/01 00:43:16;;;;;;;1.55;1.45;;;15.70;99.90;;;;;;5120260;27;20066;-72
2023/06/01 00:45:43;;;;;;;0.10;0.10;;;15.50;99.90;;;;;;5116470;27;20037;-72
2023/06/01 00:48:10;;;;;;;0.20;0.20;;;15.50;99.90;;;;;;5116630;27;20063;-72
2023/06/01 00:50:36;;;;;;;0.10;0.10;;;15.40;99.90;;;;;;5116410;27;20075;-72
2023/06/01 00:53:06;;;;;;;0.20;0.20;;;15.30;99.90;;;;;;5099730;27;20035;-72
2023/06/01 00:55:33;;;;;;;0.32;0.32;;;15.30;99.90;;;;;;5116486;27;20051;-72
2023/06/01 00:58:00;;;;;;;0.15;0.15;;;15.30;99.90;;;;;;5134459;27;20071;-72
2023/06/01 01:00:28;;;;;;;0.35;0.20;;;15.40;99.90;;;;;;5116312;27;20046;-72
2023/06/01 01:03:00;;;;;;;0.10;0.10;;;15.20;99.90;;;;;;5116549;27;20020;-72
2023/06/01 01:05:26;;;;;;;2.00;0.90;;;15.30;99.90;;;;;;5116259;27;20031;-71
2023/06/01 01:08:36;;;;;;;0.30;0.30;;;15.20;99.90;;;;;;5111789;28;20019;-72
2023/06/01 01:11:36;;;;;;;0.30;0.30;;;15.10;99.90;;;;;;5112008;27;20034;-72
2023/06/01 01:14:15;;;;;;;0.10;0.10;;;15.10;99.90;;;;;;5089994;27;20054;-72
2023/06/01 01:17:15;;;;;;;0.10;0.10;;;15.20;99.90;;;;;;5134707;27;20344;-72
2023/06/01 01:19:58;;;;;;;1.42;1.33;;;15.20;99.90;;;;;;5098665;27;20383;-72
2023/06/01 01:22:36;;;;;;;1.00;1.00;;;14.90;99.90;;;;;;5099226;27;20080;-72
2023/06/01 01:25:18;;;;;;;0.10;0.10;;;14.80;99.90;;;;;;5115667;27;20058;-72
2023/06/01 01:28:09;;;;;;;0.30;0.30;;;14.80;99.90;;;;;;5099306;27;20059;-72
2023/06/01 01:30:41;;;;;;;0.10;0.10;;;14.90;99.90;;;;;;5093939;27;20085;-72
2023/06/01 01:33:07;;;;;;;0.32;0.30;;;15.00;99.90;;;;;;5115764;27;20023;-72
2023/06/01 01:35:34;;;;;;;0.10;0.10;;;14.90;99.90;;;;;;5098778;27;20031;-72
2023/06/01 01:38:00;;;;;;;0.10;0.10;;;14.80;99.90;;;;;;5115836;28;20029;-72
2023/06/01 01:40:25;;;;;;;0.63;0.63;;;14.90;99.90;;;;;;5098234;27;20475;-72
2023/06/01 01:42:53;;;;;;;0.10;0.10;;;15.00;99.90;;;;;;5115986;27;20011;-72
2023/06/01 01:45:19;;;;;;;4.85;1.80;;;14.80;99.90;;;;;;5115448;27;20072;-72
2023/06/01 01:48:08;;;;;;;0.20;0.20;;;14.50;99.90;;;;;;5115582;27;20030;-72
2023/06/01 01:50:41;;;;;;;0.50;0.43;;;14.40;99.90;;;;;;5115373;27;20015;-72
2023/06/01 01:53:09;;;;;;;0.30;0.30;;;14.30;99.90;;;;;;5115555;27;20032;-72
2023/06/01 01:55:36;;;;;;;1.00;0.90;;;14.40;99.90;;;;;;5132771;27;20019;-72
2023/06/01 01:58:03;;;;;;;1.08;1.08;;;14.30;99.90;;;;;;5098407;27;20039;-72
2023/06/01 02:00:31;;;;;;;0.15;0.15;;;14.20;99.90;;;;;;5115115;27;20084;-72
2023/06/01 02:02:58;;;;;;;0.30;0.30;;;14.10;99.90;;;;;;5134217;27;20015;-72
2023/06/01 02:05:24;;;;;;;1.55;1.45;;;14.20;99.90;;;;;;5115274;28;20023;-72
2023/06/01 02:07:50;;;;;;;0.68;0.68;;;14.20;99.90;;;;;;5111341;28;20012;-72
2023/06/01 02:10:16;;;;;;;0.40;0.40;;;14.20;99.90;;;;;;5104654;28;20041;-72
2023/06/01 02:12:42;;;;;;;0.22;0.22;;;14.00;99.90;;;;;;5098300;28;20379;-72
2023/06/01 02:15:08;;;;;;;2.42;0.90;;;14.00;99.90;;;;;;5115541;28;20035;-72
2023/06/01 02:17:34;;;;;;;0.25;0.25;;;14.00;99.90;;;;;;5133808;28;20035;-72
2023/06/01 02:20:01;;;;;;;3.03;1.02;;;14.00;99.90;;;;;;5115140;28;20050;-72
2023/06/01 02:22:29;;;;;;;0.95;0.95;;;14.00;99.90;;;;;;5115356;28;20015;-72
2023/06/01 02:24:55;;;;;;;1.92;1.75;;;14.00;99.90;;;;;;5115046;28;20026;-72
2023/06/01 02:27:23;;;;;;;0.10;0.10;;;13.80;99.90;;;;;;5115208;28;20023;-73
2023/06/01 02:29:48;;;;;;;0.10;0.10;;;13.80;99.90;;;;;;5115180;28;20023;-72
2023/06/01 02:32:15;;;;;;;4.78;1.23;;;13.70;99.90;;;;;;5115169;28;20487;-72
2023/06/01 02:34:41;;;;;;;4.68;0.85;;;13.70;99.90;;;;;;5133409;28;20029;-72
2023/06/01 02:37:06;;;;;;;0.20;0.20;;;13.80;99.90;;;;;;5098047;28;20440;-72
2023/06/01 02:39:32;;;;;;;0.15;0.15;;;13.80;99.90;;;;;;5133333;28;20069;-72
2023/06/01 02:41:58;;;;;;;0.10;0.10;;;13.70;99.90;;;;;;5114850;28;20078;-72
2023/06/01 02:44:24;;;;;;;0.17;0.17;;;13.90;99.90;;;;;;5121986;28;20788;-72
2023/06/01 02:46:50;;;;;;;0.73;0.73;;;13.70;99.90;;;;;;5094188;28;20031;-72
2023/06/01 02:49:16;;;;;;;0.17;0.17;;;13.70;99.90;;;;;;5094483;28;20542;-72
2023/06/01 02:51:43;;;;;;;0.20;0.20;;;13.80;99.90;;;;;;5094379;28;20522;-72
2023/06/01 02:54:27;;;;;;;2.17;1.20;;;13.90;99.90;;;;;;5094504;28;20034;-72
2023/06/01 02:56:54;;;;;;;0.10;0.10;;;13.70;99.90;;;;;;5094864;28;20040;-72
2023/06/01 02:59:30;;;;;;;0.47;0.47;;;13.40;99.90;;;;;;5094397;28;20044;-72
2023/06/01 03:02:00;;;;;;;0.17;0.17;;;13.50;99.90;;;;;;5078057;28;20372;-72
2023/06/01 03:04:28;;;;;;;0.40;0.40;;;13.40;99.90;;;;;;5094535;28;20081;-72
2023/06/01 03:06:56;;;;;;;0.55;0.32;;;13.30;99.90;;;;;;5094567;28;20080;-72
2023/06/01 03:09:45;;;;;;;1.15;1.10;;;13.20;99.90;;;;;;5098084;28;20122;-72
2023/06/01 03:12:39;;;;;;;0.28;0.28;;;13.30;99.90;;;;;;5098005;28;20031;-72
2023/06/01 03:15:05;;;;;;;0.63;0.63;;;13.40;99.90;;;;;;5097813;28;20106;-72
2023/06/01 03:17:33;;;;;;;0.95;0.50;;;13.40;99.90;;;;;;5098012;28;20024;-72
2023/06/01 03:20:00;;;;;;;2.95;0.50;;;13.50;99.90;;;;;;5097780;28;20111;-72
2023/06/01 03:22:26;;;;;;;0.52;0.52;;;13.50;99.90;;;;;;5097797;28;20058;-72
2023/06/01 03:24:54;;;;;;;0.20;0.20;;;13.50;99.90;;;;;;5097885;28;20535;-72
2023/06/01 03:27:25;;;;;;;0.68;0.68;;;13.50;99.90;;;;;;5098231;28;20349;-72
2023/06/01 03:29:50;;;;;;;0.25;0.25;;;13.30;99.90;;;;;;5116367;28;20114;-72
2023/06/01 03:32:18;;;;;;;0.10;0.10;;;13.30;99.90;;;;;;5097968;28;20055;-72
2023/06/01 03:34:43;;;;;;;5.15;1.08;;;13.30;99.90;;;;;;5080457;28;20075;-72
2023/06/01 03:37:09;;;;;;;0.20;0.20;;;13.10;99.90;;;;;;5096702;28;20384;-72
2023/06/01 03:39:35;;;;;;;0.10;0.10;;;13.00;99.90;;;;;;5115383;28;20122;-72
2023/06/01 03:42:03;;;;;;;0.10;0.10;;;12.80;99.90;;;;;;5096878;28;20047;-72
2023/06/01 03:44:29;;;;;;;0.30;0.30;;;12.80;99.90;;;;;;5097326;28;20031;-72
2023/06/01 03:46:55;;;;;;;0.10;0.10;;;13.00;99.90;;;;;;5097379;28;20028;-72
2023/06/01 03:49:21;;;;;;;1.45;1.15;;;13.00;99.90;;;;;;5097479;28;20024;-72
2023/06/01 03:51:47;;;;;;;0.93;0.93;;;13.10;99.90;;;;;;5096929;28;20031;-72
2023/06/01 03:54:13;;;;;;;1.17;1.08;;;13.10;99.90;;;;;;5097133;28;20430;-72
2023/06/01 03:56:40;;;;;;;0.30;0.30;;;13.20;99.90;;;;;;5097220;28;20544;-72
2023/06/01 03:59:10;;;;;;;0.40;0.40;;;13.50;99.90;;;;;;5097083;28;20115;-72
2023/06/01 04:01:39;;;;;;;0.13;0.13;;;13.30;99.90;;;;;;5115666;28;20168;-72
2023/06/01 04:04:08;;;;;;;0.10;0.10;;;13.40;99.90;;;;;;5096793;28;20107;-72
2023/06/01 04:06:36;;;;;;;6.13;0.88;;;13.50;99.90;;;;;;5096573;28;20468;-72
2023/06/01 04:09:06;;;;;;;4.10;1.30;;;13.40;99.90;;;;;;5096728;28;20024;-72
2023/06/01 04:11:33;;;;;;;3.78;0.73;;;13.50;99.90;;;;;;5096956;28;20066;-72
2023/06/01 04:13:59;;;;;;;0.52;0.52;;;13.50;99.90;;;;;;5096810;28;20035;-72
2023/06/01 04:16:26;;;;;;;0.20;0.20;;;13.50;99.90;;;;;;5097086;28;20035;-72
2023/06/01 04:18:52;;;;;;;0.10;0.10;;;13.40;99.90;;;;;;5095596;28;20054;-72
2023/06/01 04:21:25;;;;;;;0.63;0.63;;;13.30;99.90;;;;;;5115130;28;20380;-72
2023/06/01 04:23:51;;;;;;;1.13;1.10;;;13.50;99.90;;;;;;5096467;28;20479;-72
2023/06/01 04:26:18;;;;;;;0.90;0.85;;;13.50;99.90;;;;;;5096700;28;20054;-72
2023/06/01 04:28:45;;;;;;;1.63;0.68;;;13.50;99.90;;;;;;5114731;28;20480;-72
2023/06/01 04:31:19;;;;;;;0.73;0.73;;;13.50;99.90;;;;;;5096877;28;20024;-72
2023/06/01 04:33:52;;;;;;;1.13;1.05;;;13.40;99.90;;;;;;5079175;28;20031;-72
2023/06/01 04:36:20;;;;;;;5.05;1.45;;;13.40;99.90;;;;;;5096232;28;20026;-72
2023/06/01 04:38:57;;;;;;;1.00;0.85;;;13.50;99.90;;;;;;5096350;28;20032;-72
2023/06/01 04:41:24;;;;;;;4.03;2.55;;;13.40;99.90;;;;;;5114504;28;20483;-72
2023/06/01 04:43:53;;;;;;;1.50;1.38;;;13.30;99.90;;;;;;5114366;28;20470;-72
2023/06/01 04:46:26;;;;;;;1.80;1.23;;;13.20;99.90;;;;;;5079445;28;20434;-72
2023/06/01 04:48:57;;;;;;;1.83;1.48;;;13.30;99.90;;;;;;5095823;28;20069;-72
2023/06/01 04:51:23;;;;;;;0.30;0.28;;;13.20;99.90;;;;;;5096207;28;20107;-72
2023/06/01 04:53:51;;;;;;;0.85;0.77;;;13.20;99.90;;;;;;5114242;28;20531;-72
2023/06/01 04:56:26;;;;;;;0.57;0.57;;;13.10;99.90;;;;;;5096007;28;20062;-72
2023/06/01 04:58:53;;;;;;;1.33;1.25;;;13.30;99.90;;;;;;5114260;28;20051;-72
2023/06/01 05:01:24;;;;;;;3.45;2.20;;;13.10;99.90;;;;;;5096012;28;20019;-72
2023/06/01 05:03:53;;;;;;;2.33;2.13;;;13.00;99.90;;;;;;5095521;28;20039;-72
2023/06/01 05:06:20;;;;;;;1.75;0.57;;;13.00;99.90;;;;;;5114188;28;20024;-72
2023/06/01 05:08:46;;;;;;;0.10;0.10;;;13.10;99.90;;;;;;5095665;28;20131;-72
2023/06/01 05:11:12;;;;;;;0.47;0.47;;;13.20;99.90;;;;;;5095764;28;20535;-72
2023/06/01 05:13:39;;;;;;;1.50;1.40;;;13.50;99.90;;;;;;5114163;28;20028;-72
2023/06/01 05:16:07;;;;;;;2.58;2.25;;;13.50;99.90;;;;;;5095240;28;20043;-72
2023/06/01 05:18:34;;;;;;;19.85;9.48;;;13.40;99.90;;;;;;5095557;28;20023;-72
2023/06/01 05:21:00;;;;;;;5.38;2.58;;;13.40;99.90;;;;;;5095519;28;20024;-72
2023/06/01 05:23:26;;;;;;;0.75;0.75;;;13.30;99.90;;;;;;5095394;28;20015;-72
2023/06/01 05:26:02;;;;;;;3.33;0.95;;;13.30;99.90;;;;;;5095552;28;20459;-72
2023/06/01 05:28:32;;;;;;;1.23;1.13;;;13.40;99.90;;;;;;5095318;28;20022;-72
2023/06/01 05:30:58;;;;;;;0.30;0.30;;;13.50;99.90;;;;;;5095604;28;20059;-72
2023/06/01 05:33:24;;;;;;;3.90;1.27;;;13.70;99.90;;;;;;5095139;28;20065;-72
2023/06/01 05:35:51;;;;;;;0.35;0.35;;;13.70;99.90;;;;;;5095205;28;20027;-72
2023/06/01 05:38:20;;;;;;;5.68;1.23;;;13.70;99.90;;;;;;5095245;28;20028;-72
2023/06/01 05:40:47;;;;;;;3.40;2.60;;;13.90;99.90;;;;;;5095061;28;20446;-72
2023/06/01 05:43:14;;;;;;;0.47;0.47;;;13.80;99.90;;;;;;5095334;28;20383;-72
2023/06/01 05:45:40;;;;;;;0.50;0.50;;;13.90;99.90;;;;;;5095330;28;20016;-72
2023/06/01 05:48:06;;;;;;;0.10;0.10;;;13.90;99.90;;;;;;5094987;28;20364;-73
2023/06/01 05:50:32;;;;;;;0.20;0.20;;;14.20;99.90;;;;;;5090893;28;20039;-71
2023/06/01 05:52:58;;;;;;;0.20;0.20;;;14.10;99.90;;;;;;5094701;28;20043;-71
2023/06/01 05:55:24;;;;;;;0.25;0.25;;;14.10;99.90;;;;;;5094734;28;20065;-71
2023/06/01 05:57:49;;;;;;;2.85;2.25;;;14.10;99.90;;;;;;5097185;28;20043;-71
2023/06/01 06:00:16;;;;;;;0.40;0.40;;;14.20;99.90;;;;;;5093771;28;20064;-71
2023/06/01 06:02:43;;;;;;;0.93;0.93;;;14.30;99.90;;;;;;5110890;28;20059;-71
2023/06/01 06:05:09;;;;;;;5.20;2.05;;;14.40;99.90;;;;;;5096158;28;20478;-71
2023/06/01 06:07:35;;;;;;;0.50;0.38;;;14.50;99.90;;;;;;5105007;28;20114;-71
2023/06/01 06:10:01;;;;;;;1.35;0.98;;;14.60;99.90;;;;;;5112060;28;20027;-73
2023/06/01 06:12:27;;;;;;;0.30;0.30;;;14.60;99.90;;;;;;5112390;28;20028;-72
2023/06/01 06:14:53;;;;;;;0.50;0.50;;;14.50;99.90;;;;;;5112301;28;20024;-73
2023/06/01 06:17:19;;;;;;;0.10;0.10;;;14.50;99.90;;;;;;5112431;28;20059;-73
2023/06/01 06:19:47;;;;;;;0.85;0.65;;;14.50;99.90;;;;;;5112087;28;20040;-73
2023/06/01 06:22:13;;;;;;;2.28;1.40;;;14.70;99.90;;;;;;5112000;28;20020;-73
2023/06/01 06:24:39;;;;;;;0.73;0.73;;;14.80;99.90;;;;;;5112374;28;20107;-73
2023/06/01 06:27:06;;;;;;;0.10;0.10;;;14.90;99.90;;;;;;5111911;28;20102;-73
2023/06/01 06:29:32;;;;;;;0.45;0.45;;;15.20;99.90;;;;;;5112146;28;20032;-73
2023/06/01 06:31:58;;;;;;;0.40;0.40;;;15.60;99.90;;;;;;5111717;28;20024;-73
2023/06/01 06:34:24;;;;;;;0.20;0.20;;;15.70;99.90;;;;;;5112373;28;20062;-70
2023/06/01 06:36:49;;;;;;;0.57;0.57;;;15.80;99.90;;;;;;5111774;28;20027;-73
2023/06/01 06:39:15;;;;;;;1.30;1.20;;;15.70;99.90;;;;;;5112179;28;20126;-73
2023/06/01 06:41:42;;;;;;;1.55;1.38;;;15.50;99.90;;;;;;5112015;28;20031;-73
2023/06/01 06:44:08;;;;;;;0.10;0.10;;;15.50;99.90;;;;;;5115656;28;20118;-73
2023/06/01 06:46:34;;;;;;;0.75;0.75;;;15.70;99.90;;;;;;5116006;28;20500;-73
2023/06/01 06:48:59;;;;;;;0.10;0.10;;;15.50;99.90;;;;;;5115959;28;20061;-72
2023/06/01 06:51:25;;;;;;;0.30;0.30;;;15.60;99.90;;;;;;5114795;28;20386;-73
2023/06/01 06:53:51;;;;;;;0.40;0.40;;;15.90;99.90;;;;;;5116130;28;20032;-72
2023/06/01 06:56:17;;;;;;;0.10;0.10;;;15.90;99.90;;;;;;5097617;28;20061;-75
2023/06/01 06:58:44;;;;;;;0.15;0.15;;;15.70;99.90;;;;;;5115527;28;20023;-73
2023/06/01 07:01:10;;;;;;;0.10;0.10;;;16.00;99.90;;;;;;5114834;28;20115;-71
2023/06/01 07:03:37;;;;;;;5.63;2.30;;;16.20;99.90;;;;;;5116143;28;20068;-72
2023/06/01 07:06:02;;;;;;;1.60;1.00;;;15.90;99.90;;;;;;5115807;28;20122;-71
2023/06/01 07:08:28;;;;;;;0.10;0.10;;;15.80;99.90;;;;;;5116003;28;20051;-74
2023/06/01 07:10:56;;;;;;;0.28;0.28;;;15.80;99.90;;;;;;5115787;28;20023;-74
2023/06/01 07:13:22;;;;;;;1.45;0.63;;;15.90;99.90;;;;;;5116124;28;20031;-75
2023/06/01 07:15:48;;;;;;;0.63;0.63;;;15.90;99.90;;;;;;5116459;28;20015;-74
2023/06/01 07:18:13;;;;;;;2.90;1.65;;;16.10;99.90;;;;;;5116276;28;20024;-74
2023/06/01 07:20:40;;;;;;;3.22;0.40;;;16.10;99.90;;;;;;5116362;28;20059;-74
2023/06/01 07:23:06;;;;;;;0.35;0.32;;;16.00;99.90;;;;;;5097686;28;20031;-74
2023/06/01 07:25:32;;;;;;;0.30;0.30;;;15.90;99.90;;;;;;5116187;28;20111;-74
2023/06/01 07:27:58;;;;;;;1.67;0.77;;;16.10;99.90;;;;;;5115696;28;20051;-74
2023/06/01 07:30:23;;;;;;;0.43;0.43;;;15.50;99.90;;;;;;5116339;28;20059;-74
2023/06/01 07:32:49;;;;;;;0.10;0.10;;;15.90;99.90;;;;;;5115747;28;20047;-75
2023/06/01 07:35:15;;;;;;;0.10;0.10;;;16.10;99.90;;;;;;5115920;28;20368;-74
2023/06/01 07:37:41;;;;;;;2.95;2.55;;;16.30;99.90;;;;;;5097777;28;20384;-74
2023/06/01 07:40:07;;;;;;;6.00;3.22;;;16.40;99.90;;;;;;5115527;28;20043;-74
2023/06/01 07:42:33;;;;;;;1.08;0.95;;;16.20;99.90;;;;;;5097306;28;20055;-75
2023/06/01 07:44:59;;;;;;;0.30;0.30;;;16.20;99.90;;;;;;5097341;28;20429;-74
2023/06/01 07:47:25;;;;;;;4.15;1.45;;;15.90;99.90;;;;;;5115883;28;20034;-74
2023/06/01 07:49:51;;;;;;;0.32;0.20;;;16.00;99.90;;;;;;5116022;28;20360;-74
2023/06/01 07:52:17;;;;;;;0.93;0.93;;;16.20;99.90;;;;;;5115512;28;20072;-74
2023/06/01 07:54:43;;;;;;;6.90;2.92;;;16.70;99.90;;;;;;5114492;28;20020;-74
2023/06/01 07:57:09;;;;;;;0.40;0.40;;;16.50;99.90;;;;;;5115289;28;20046;-75
2023/06/01 07:59:35;;;;;;;0.90;0.63;;;16.80;99.90;;;;;;5115238;28;20510;-74
2023/06/01 08:02:01;;;;;;;0.35;0.35;;;16.90;99.90;;;;;;5115467;28;20049;-75
2023/06/01 08:04:27;;;;;;;1.85;1.65;;;17.20;99.90;;;;;;5115438;28;20460;-74
2023/06/01 08:06:53;;;;;;;1.70;1.20;;;17.40;99.90;;;;;;5115411;28;20041;-74
2023/06/01 08:09:25;;;;;;;0.77;0.77;;;17.30;99.90;;;;;;5115311;28;20027;-74
2023/06/01 08:11:53;;;;;;;2.28;2.03;;;17.50;99.90;;;;;;5114987;28;20016;-74
2023/06/01 08:14:19;;;;;;;3.90;2.15;;;17.60;99.90;;;;;;5114862;28;20111;-75
2023/06/01 08:16:45;;;;;;;1.33;1.13;;;17.40;99.90;;;;;;5115089;28;20115;-74
2023/06/01 08:19:11;;;;;;;1.88;1.40;;;17.50;99.90;;;;;;5114854;28;20031;-74
2023/06/01 08:21:37;;;;;;;2.28;1.63;;;17.50;99.90;;;;;;5115250;28;20484;-74
2023/06/01 08:24:03;;;;;;;1.40;1.00;;;17.50;99.90;;;;;;5115122;28;20101;-75
2023/06/01 08:26:29;;;;;;;3.92;1.38;;;17.40;99.90;;;;;;5114676;28;20460;-74
2023/06/01 08:28:55;;;;;;;0.93;0.68;;;17.60;99.90;;;;;;5115074;28;20110;-75
2023/06/01 08:31:23;;;;;;;0.20;0.20;;;18.10;99.90;;;;;;5114861;28;20408;-74
2023/06/01 08:33:53;;;;;;;1.50;0.63;;;18.10;99.90;;;;;;5114992;28;20064;-74
2023/06/01 08:36:19;;;;;;;4.32;1.65;;;18.30;99.90;;;;;;5096596;28;20023;-74
2023/06/01 08:38:46;;;;;;;4.13;2.00;;;18.50;99.90;;;;;;5114595;28;20529;-72
2023/06/01 08:41:24;;;;;;;3.70;0.95;;;18.40;99.90;;;;;;5114210;28;20039;-73
2023/06/01 08:44:08;;;;;;;0.93;0.90;;;18.00;99.90;;;;;;5096393;28;20032;-72
2023/06/01 08:46:37;;;;;;;0.55;0.55;;;17.70;99.90;;;;;;5114618;28;20030;-75
2023/06/01 08:49:06;;;;;;;5.22;1.40;;;17.80;99.90;;;;;;5096084;28;20020;-72
2023/06/01 08:51:36;;;;;;;14.90;2.42;;;18.30;99.90;;;;;;5096325;28;20028;-72
2023/06/01 08:54:05;;;;;;;1.75;1.15;;;18.50;99.90;;;;;;5114005;28;20088;-75
2023/06/01 08:56:31;;;;;;;1.08;0.98;;;18.40;99.90;;;;;;5096012;28;20106;-75
2023/06/01 08:58:59;;;;;;;0.47;0.47;;;18.50;99.90;;;;;;5095692;28;20139;-72
2023/06/01 09:01:25;;;;;;;2.55;2.17;;;18.80;99.90;;;;;;5114318;28;20028;-72
2023/06/01 09:03:51;;;;;;;0.73;0.73;;;19.00;99.90;;;;;;5114140;28;20101;-72
2023/06/01 09:06:17;;;;;;;3.22;1.23;;;19.10;99.90;;;;;;5095297;28;20460;-75
2023/06/01 09:08:45;;;;;;;4.28;0.47;;;19.40;99.90;;;;;;5095976;28;20112;-75
2023/06/01 09:11:11;;;;;;;3.40;1.85;;;19.10;99.90;;;;;;5113687;28;20024;-75
2023/06/01 09:13:38;;;;;;;1.88;1.10;;;19.60;99.90;;;;;;5114045;28;20380;-74
2023/06/01 09:16:05;;;;;;;1.55;0.85;;;19.80;99.70;;;;;;5113749;28;20023;-72
2023/06/01 09:18:31;;;;;;;1.95;1.40;;;19.70;99.10;;;;;;5114066;28;20032;-74
2023/06/01 09:21:13;;;;;;;0.15;0.15;;;19.70;99.60;;;;;;5113667;28;20035;-75
2023/06/01 09:23:39;;;;;;;;;;;20.00;99.50;;;;;;5114058;28;20045;-74
2023/06/01 09:26:13;;;;;;;2.63;1.27;;;20.10;99.00;;;;;;5095560;28;20553;-72
2023/06/01 09:28:56;;;;;;;1.63;0.95;;;20.20;98.90;;;;;;5095660;28;20072;-73
2023/06/01 09:31:44;;;;;;;4.38;0.30;;;20.40;98.70;;;;;;5113500;28;20112;-73
2023/06/01 09:34:19;;;;;;;2.17;0.60;;;20.60;99.00;;;;;;5114161;28;20123;-73
2023/06/01 09:36:52;;;;;;;4.25;1.65;;;20.80;98.10;;;;;;5113545;28;20088;-74
2023/06/01 09:39:21;;;;;;;1.90;1.48;;;20.40;98.50;;;;;;5096494;28;20028;-72
2023/06/01 09:41:54;;;;;;;1.75;1.27;;;20.30;98.00;;;;;;5113606;28;20472;-74
2023/06/01 09:44:27;;;;;;;0.20;0.20;;;20.20;98.40;;;;;;5113773;28;20475;-72
2023/06/01 09:46:55;;;;;;;14.35;2.22;;;20.40;98.30;;;;;;5095309;28;20040;-72
2023/06/01 09:49:27;;;;;;;1.95;0.85;;;20.50;98.00;;;;;;5113651;28;20031;-75
2023/06/01 09:52:05;;;;;;;0.60;0.43;;;20.40;97.80;;;;;;5113396;28;20111;-75
2023/06/01 09:54:39;;;;;;;1.95;1.55;;;20.80;98.10;;;;;;5113206;28;20032;-72
2023/06/01 09:57:06;;;;;;;0.95;0.93;;;20.90;97.30;;;;;;5095187;28;20031;-72
2023/06/01 09:59:46;;;;;;;1.23;0.77;;;21.00;96.70;;;;;;5113327;28;20168;-72
2023/06/01 10:02:20;;;;;;;1.40;0.95;;;21.30;96.60;;;;;;5113270;28;20035;-72
2023/06/01 10:04:57;;;;;;;0.75;0.70;;;21.40;95.70;;;;;;5095034;28;20416;-72
2023/06/01 10:07:28;;;;;;;4.68;1.30;;;21.50;96.00;;;;;;5112880;28;20023;-73
2023/06/01 10:09:58;;;;;;;0.82;0.75;;;21.50;96.20;;;;;;5112908;28;20019;-73
2023/06/01 10:12:28;;;;;;;2.03;1.13;;;21.70;96.10;;;;;;5113234;28;20050;-72
2023/06/01 10:14:55;;;;;;;0.00;0.00;;;21.80;96.80;;;;;;5113024;28;20030;-72
2023/06/01 10:17:22;;;;;;;3.67;1.92;;;22.10;95.70;;;;;;5112218;28;20008;-73
2023/06/01 10:19:48;;;;;;;1.60;0.85;;;22.30;95.70;;;;;;5112935;28;20032;-72
2023/06/01 10:22:14;;;;;;;0.10;0.10;;;22.20;95.60;;;;;;5112915;28;20049;-72
2023/06/01 10:24:42;;;;;;;0.43;0.43;;;22.00;95.10;;;;;;5113042;28;20107;-72
2023/06/01 10:27:11;;;;;;;0.80;0.80;;;21.90;95.30;;;;;;5112902;28;20023;-72
2023/06/01 10:29:37;;;;;;;1.73;1.63;;;22.30;95.00;;;;;;5113134;28;20023;-75
2023/06/01 10:32:03;;;;;;;1.33;0.98;;;22.40;94.40;;;;;;5112800;28;20024;-73
2023/06/01 10:34:39;;;;;;;1.95;1.10;;;22.40;94.40;;;;;;5113140;28;20027;-75
2023/06/01 10:37:05;;;;;;;0.60;0.60;;;22.30;94.20;;;;;;5112463;28;20059;-72
2023/06/01 10:39:33;;;;;;;0.40;0.40;;;22.40;93.90;;;;;;5112992;28;20488;-73
2023/06/01 10:42:19;;;;;;;5.28;2.38;;;22.10;94.20;;;;;;5112632;28;20040;-72
2023/06/01 10:44:46;;;;;;;0.22;0.22;;;22.50;94.20;;;;;;5112651;28;20472;-72
2023/06/01 10:47:12;;;;;;;0.45;0.45;;;22.80;93.80;;;;;;5112721;28;20545;-73
2023/06/01 10:49:50;;;;;;;8.82;1.10;;;22.80;93.30;;;;;;5094822;28;20027;-72
2023/06/01 10:52:28;;;;;;;13.45;3.17;;;22.80;93.80;;;;;;5112314;28;20032;-72
2023/06/01 10:54:55;;;;;;;0.77;0.30;;;22.70;93.80;;;;;;5094671;28;20051;-72
2023/06/01 10:57:25;;;;;;;1.52;1.20;;;22.90;94.80;;;;;;5112507;28;20092;-72
2023/06/01 11:00:11;;;;;;;0.10;0.10;;;23.10;93.90;;;;;;5112817;28;20036;-73
2023/06/01 11:03:04;;;;;;;2.70;1.88;;;23.00;94.60;;;;;;5112585;28;20058;-73
2023/06/01 11:05:43;;;;;;;0.00;0.00;;;23.20;94.40;;;;;;5112525;28;20077;-72
2023/06/01 11:08:09;;;;;;;0.20;0.20;;;23.40;94.20;;;;;;5112646;28;20027;-72
2023/06/01 11:10:56;;;;;;;0.55;0.52;;;22.90;94.20;;;;;;5112759;28;20027;-73
2023/06/01 11:13:27;;;;;;;0.10;0.10;;;23.30;94.50;;;;;;5112500;28;20031;-73
2023/06/01 11:16:18;;;;;;;;;;;23.10;94.10;;;;;;5113035;28;20036;-72
2023/06/01 11:18:57;;;;;;;0.52;0.52;;;23.10;93.40;;;;;;5110707;28;19907;-73
2023/06/01 11:21:44;;;;;;;0.57;0.57;;;23.70;93.10;;;;;;5112368;28;20039;-72
2023/06/01 11:24:22;;;;;;;7.95;0.85;;;23.30;93.00;;;;;;5112289;28;20126;-73
2023/06/01 11:26:49;;;;;;;2.55;1.65;;;23.20;93.30;;;;;;5094244;28;20084;-73
2023/06/01 11:29:16;;;;;;;2.55;1.88;;;23.30;92.90;;;;;;5115196;27;20055;-73
2023/06/01 11:31:50;;;;;;;2.75;2.35;;;23.30;93.40;;;;;;5116138;28;20030;-73
2023/06/01 11:34:20;;;;;;;2.15;2.05;;;23.40;93.00;;;;;;5115848;28;20028;-73
2023/06/01 11:36:48;;;;;;;2.53;1.20;;;23.70;93.20;;;;;;5116244;28;20497;-73
2023/06/01 11:39:20;;;;;;;4.97;1.08;;;24.10;92.90;;;;;;5116062;28;20067;-74
2023/06/01 11:41:47;;;;;;;1.08;0.57;;;24.50;92.10;;;;;;5115769;28;20122;-74
2023/06/01 11:44:14;;;;;;;2.38;0.75;;;24.30;92.00;;;;;;5097620;28;20032;-73
2023/06/01 11:47:00;;;;;;;0.28;0.20;;;24.50;92.30;;;;;;5097708;28;20015;-73
2023/06/01 11:49:27;;;;;;;0.57;0.55;;;24.80;91.70;;;;;;5101346;28;20123;-74
2023/06/01 11:51:56;;;;;;;7.10;6.45;;;24.80;91.30;;;;;;5097462;28;20476;-74
2023/06/01 11:54:28;;;;;;;11.35;3.25;;;24.90;91.50;;;;;;5115645;28;20418;-73
2023/06/01 11:56:55;;;;;;;0.25;0.25;;;24.80;90.70;;;;;;5097536;28;20035;-74
2023/06/01 11:59:21;;;;;;;2.92;0.80;;;24.70;91.30;;;;;;5115384;28;20032;-74
2023/06/01 12:01:48;;;;;;;0.32;0.32;;;24.90;91.40;;;;;;5097480;28;20024;-73
2023/06/01 12:04:16;;;;;;;0.60;0.60;;;24.90;91.40;;;;;;5096904;28;20023;-73
2023/06/01 12:06:42;;;;;;;9.20;2.47;;;25.00;91.40;;;;;;5115507;28;20035;-73
2023/06/01 12:09:09;;;;;;;1.05;0.90;;;24.80;90.60;;;;;;5115466;28;20073;-73
2023/06/01 12:11:37;;;;;;;0.52;0.52;;;25.00;90.70;;;;;;5097250;28;20016;-73
2023/06/01 12:14:05;;;;;;;0.10;0.10;;;25.00;90.70;;;;;;5097207;28;20509;-73
2023/06/01 12:16:53;;;;;;;1.48;1.25;;;25.10;90.30;;;;;;5097160;28;20081;-73
2023/06/01 12:19:21;;;;;;;4.60;1.80;;;25.20;90.60;;;;;;5115076;28;20042;-73
2023/06/01 12:21:56;;;;;;;3.50;0.85;;;25.40;91.10;;;;;;5115085;28;20019;-74
2023/06/01 12:24:30;;;;;;;1.13;0.28;;;25.40;90.60;;;;;;5096881;28;20083;-75
2023/06/01 12:26:58;;;;;;;2.17;1.33;;;25.70;90.60;;;;;;5114857;28;20484;-75
2023/06/01 12:29:47;;;;;;;2.20;0.85;;;25.80;89.10;;;;;;5097105;28;20040;-74
2023/06/01 12:32:15;;;;;;;10.70;1.27;;;25.20;89.30;;;;;;5114965;28;20047;-74
2023/06/01 12:34:48;;;;;;;0.10;0.10;;;25.90;90.30;;;;;;5096889;28;20050;-74
2023/06/01 12:37:16;;;;;;;0.45;0.45;;;25.90;89.80;;;;;;5103457;28;20020;-73
2023/06/01 12:39:42;;;;;;;0.75;0.60;;;26.10;87.70;;;;;;5113683;28;20105;-73
2023/06/01 12:42:10;;;;;;;2.22;1.15;;;25.90;87.60;;;;;;5113895;28;20509;-73
2023/06/01 12:44:36;;;;;;;5.00;2.30;;;25.70;88.50;;;;;;5114192;28;20028;-72
2023/06/01 12:47:03;;;;;;;1.75;1.55;;;25.30;88.30;;;;;;5113696;28;20034;-73
2023/06/01 12:49:29;;;;;;;3.65;1.48;;;25.40;88.50;;;;;;5098839;28;20031;-72
2023/06/01 12:51:56;;;;;;;0.55;0.43;;;25.10;89.70;;;;;;5109531;27;20554;-72
2023/06/01 12:54:22;;;;;;;1.65;0.90;;;26.00;89.10;;;;;;5113803;28;20028;-72
2023/06/01 12:56:48;;;;;;;4.07;1.55;;;26.60;87.70;;;;;;5113775;28;20050;-72
2023/06/01 12:59:15;;;;;;;0.32;0.32;;;26.70;87.60;;;;;;5113483;28;20032;-70